Time;durP1;ratioP1;P1;durP2;ratioP2;P2;SDS_P1;SDS_P2;PMS_P1;PMS_P2;Temp;Humidity;BMP_temperature;BMP_pressure;BME280_temperature;BME280_humidity;BME280_pressure;Samples;Min_cycle;Max_cycle;Signal;HPM_P1;HPM_P2
2022/10/17 00:01:11;;;;;;;;;;;;;;;14.52;87.07;101886.66;5078371;28;19916;-82
2022/10/17 00:03:56;;;;;;;;;;;;;;;14.46;87.11;101885.97;5081523;28;19916;-82
2022/10/17 00:06:40;;;;;;;;;;;;;;;14.34;87.64;101896.63;5078556;28;19924;-81
2022/10/17 00:09:24;;;;;;;;;;;;;;;14.37;87.78;101896.06;5078635;28;19917;-81
2022/10/17 00:12:09;;;;;;;;;;;;;;;14.35;88.04;101895.50;5078412;28;19916;-81
2022/10/17 00:14:53;;;;;;;;;;;;;;;14.39;87.51;101891.06;5078682;28;19916;-82
2022/10/17 00:17:38;;;;;;;;;;;;;;;14.44;86.95;101885.47;5078329;28;20287;-82
2022/10/17 00:20:22;;;;;;;;;;;;;;;14.35;87.57;101898.25;5081513;28;19916;-82
2022/10/17 00:23:07;;;;;;;;;;;;;;;14.24;88.66;101898.81;5075234;28;19916;-82
2022/10/17 00:26:02;;;;;;;;;;;;;;;14.22;88.43;101903.78;5092786;22;19925;-79
2022/10/17 00:28:48;;;;;;;;;;;;;;;14.18;88.86;101909.06;5042395;28;19925;-81
2022/10/17 00:31:32;;;;;;;;;;;;;;;14.30;88.02;101911.25;5056782;28;19916;-81
2022/10/17 00:34:17;;;;;;;;;;;;;;;14.26;88.48;101910.25;5051010;28;19917;-80
2022/10/17 00:37:02;;;;;;;;;;;;;;;14.21;88.38;101908.44;5051345;28;19921;-81
2022/10/17 00:39:46;;;;;;;;;;;;;;;14.19;88.91;101913.41;5040023;28;19917;-82
2022/10/17 00:42:31;;;;;;;;;;;;;;;14.22;89.08;101912.00;5027721;28;19917;-80
2022/10/17 00:45:21;;;;;;;;;;;;;;;14.28;88.54;101914.28;5022561;28;20308;-82
2022/10/17 00:48:08;;;;;;;;;;;;;;;14.21;88.85;101913.94;5018944;28;19925;-81
2022/10/17 00:50:52;;;;;;;;;;;;;;;14.25;88.24;101909.44;5054690;28;20300;-80
2022/10/17 00:53:38;;;;;;;;;;;;;;;14.26;88.29;101911.06;5022748;28;19917;-80
2022/10/17 00:56:22;;;;;;;;;;;;;;;14.25;88.01;101909.44;5048804;28;20404;-80
2022/10/17 00:59:11;;;;;;;;;;;;;;;14.19;88.01;101915.34;5010752;28;19922;-80
2022/10/17 01:01:59;;;;;;;;;;;;;;;14.07;88.99;101915.88;5055346;28;19917;-83
2022/10/17 01:04:46;;;;;;;;;;;;;;;14.15;88.44;101915.16;5033905;28;19921;-83
2022/10/17 01:07:30;;;;;;;;;;;;;;;14.17;88.26;101912.91;5033996;28;19921;-82
2022/10/17 01:10:16;;;;;;;;;;;;;;;14.10;88.65;101904.34;5050465;28;20121;-81
2022/10/17 01:13:15;;;;;;;;;;;;;;;14.21;88.01;101908.44;5034125;28;20536;-83
2022/10/17 01:16:06;;;;;;;;;;;;;;;14.13;88.11;101912.72;5025097;28;19921;-81
2022/10/17 01:18:57;;;;;;;;;;;;;;;14.06;88.40;101906.91;5028018;28;19916;-83
2022/10/17 01:21:49;;;;;;;;;;;;;;;13.94;89.17;101909.34;5029420;28;19917;-83
2022/10/17 01:24:43;;;;;;;;;;;;;;;14.05;88.65;101907.19;5036427;28;19917;-82
2022/10/17 01:27:33;;;;;;;;;;;;;;;14.11;88.05;101911.44;5051314;28;19917;-85
2022/10/17 01:30:21;;;;;;;;;;;;;;;14.01;88.54;101903.47;5032970;28;19921;-84
2022/10/17 01:33:10;;;;;;;;;;;;;;;13.90;88.94;101897.41;5033646;28;20304;-79
2022/10/17 01:36:00;;;;;;;;;;;;;;;13.96;88.82;101904.41;5020482;28;19917;-82
2022/10/17 01:38:48;;;;;;;;;;;;;;;14.02;88.68;101899.59;5033172;28;20556;-84
2022/10/17 01:41:38;;;;;;;;;;;;;;;14.07;88.97;101903.00;5022387;28;20288;-86
2022/10/17 01:44:35;;;;;;;;;;;;;;;14.07;88.64;101902.19;5020131;28;19917;-84
2022/10/17 01:47:22;;;;;;;;;;;;;;;14.01;88.81;101903.47;4999915;28;19917;-80
2022/10/17 01:50:10;;;;;;;;;;;;;;;14.01;88.60;101898.81;5040784;28;19917;-84
2022/10/17 01:52:59;;;;;;;;;;;;;;;14.07;87.89;101899.47;5039685;28;19917;-87
2022/10/17 01:55:45;;;;;;;;;;;;;;;14.00;88.22;101888.97;5051615;28;19917;-81
2022/10/17 01:58:35;;;;;;;;;;;;;;;13.94;88.46;101892.13;5049785;28;19917;-85
2022/10/17 02:01:21;;;;;;;;;;;;;;;13.97;88.03;101888.78;5047967;28;20363;-81
2022/10/17 02:04:08;;;;;;;;;;;;;;;13.98;88.05;101887.66;5022402;28;19925;-80
2022/10/17 02:06:52;;;;;;;;;;;;;;;13.98;87.97;101890.38;5047393;28;19918;-82
2022/10/17 02:09:37;;;;;;;;;;;;;;;13.94;87.86;101886.66;5038079;28;19917;-82
2022/10/17 02:12:31;;;;;;;;;;;;;;;13.92;87.90;101886.97;5050382;28;19917;-82
2022/10/17 02:15:41;;;;;;;;;;;;;;;13.71;88.17;101883.88;5019710;28;19925;-83
2022/10/17 02:18:44;;;;;;;;;;;;;;;13.69;89.14;101883.41;5039446;28;19917;-79
2022/10/17 02:21:44;;;;;;;;;;;;;;;13.66;88.93;101873.06;5013666;28;19929;-80
2022/10/17 02:24:47;;;;;;;;;;;;;;;13.74;88.83;101878.94;5034793;28;19917;-79
2022/10/17 02:27:37;;;;;;;;;;;;;;;13.65;88.56;101879.66;5040266;28;19917;-78
2022/10/17 02:30:44;;;;;;;;;;;;;;;13.64;88.72;101869.84;5032853;28;19917;-79
2022/10/17 02:33:43;;;;;;;;;;;;;;;13.66;88.66;101869.53;5050494;28;19917;-79
2022/10/17 02:36:29;;;;;;;;;;;;;;;13.78;88.25;101874.44;5032870;28;19917;-80
2022/10/17 02:39:15;;;;;;;;;;;;;;;13.81;88.53;101874.66;5023148;28;19921;-79
2022/10/17 02:42:01;;;;;;;;;;;;;;;13.86;88.63;101876.47;5033054;28;19917;-80
2022/10/17 02:44:46;;;;;;;;;;;;;;;13.90;87.91;101878.28;5047659;28;19921;-79
2022/10/17 02:47:32;;;;;;;;;;;;;;;13.87;88.39;101876.13;5033182;28;20588;-79
2022/10/17 02:50:18;;;;;;;;;;;;;;;13.92;88.28;101878.75;5021142;28;20458;-78
2022/10/17 02:53:13;;;;;;;;;;;;;;;13.94;88.37;101881.19;5048580;28;19918;-77
2022/10/17 02:56:01;;;;;;;;;;;;;;;13.95;88.17;101882.81;5033167;28;19917;-80
2022/10/17 02:58:52;;;;;;;;;;;;;;;14.00;88.03;101885.44;5032550;28;20292;-77
2022/10/17 03:01:37;;;;;;;;;;;;;;;14.04;87.85;101891.91;5041360;28;19917;-78
2022/10/17 03:04:21;;;;;;;;;;;;;;;13.99;88.15;101898.28;5031006;28;19918;-78
2022/10/17 03:07:06;;;;;;;;;;;;;;;13.98;87.98;101898.59;5019467;28;19921;-80
2022/10/17 03:09:50;;;;;;;;;;;;;;;14.19;87.11;101898.94;5044583;28;20308;-78
2022/10/17 03:12:35;;;;;;;;;;;;;;;14.19;86.49;101894.25;5042726;28;19917;-80
2022/10/17 03:15:19;;;;;;;;;;;;;;;14.25;86.24;101900.44;5044233;28;19917;-77
2022/10/17 03:18:04;;;;;;;;;;;;;;;14.29;85.85;101899.50;5020435;28;19917;-78
2022/10/17 03:20:49;;;;;;;;;;;;;;;14.16;86.22;101894.09;5022424;28;20300;-80
2022/10/17 03:23:33;;;;;;;;;;;;;;;14.19;86.29;101904.41;5032216;28;20526;-80
2022/10/17 03:26:20;;;;;;;;;;;;;;;14.17;86.38;101901.97;5051098;28;19917;-79
2022/10/17 03:29:04;;;;;;;;;;;;;;;14.14;86.68;101908.06;5048963;28;19921;-80
2022/10/17 03:31:50;;;;;;;;;;;;;;;14.11;86.71;101908.69;5029941;28;19917;-78
2022/10/17 03:34:36;;;;;;;;;;;;;;;14.09;87.12;101911.72;5025265;28;20396;-78
2022/10/17 03:37:21;;;;;;;;;;;;;;;14.20;86.54;101920.50;5044333;28;19917;-78
2022/10/17 03:40:05;;;;;;;;;;;;;;;14.29;86.14;101917.84;5032383;28;20399;-79
2022/10/17 03:42:50;;;;;;;;;;;;;;;14.29;86.21;101926.84;5050689;28;20396;-80
2022/10/17 03:45:35;;;;;;;;;;;;;;;14.36;85.79;101921.78;5035403;28;20296;-80
2022/10/17 03:48:20;;;;;;;;;;;;;;;14.43;85.40;101924.06;5053070;28;19917;-80
2022/10/17 03:51:05;;;;;;;;;;;;;;;14.28;86.15;101925.22;5049248;28;19944;-79
2022/10/17 03:53:52;;;;;;;;;;;;;;;14.32;86.20;101919.97;5031669;28;19917;-79
2022/10/17 03:56:37;;;;;;;;;;;;;;;14.37;85.77;101926.16;5015797;28;19918;-80
2022/10/17 03:59:25;;;;;;;;;;;;;;;14.36;85.72;101927.28;5016916;28;19921;-79
2022/10/17 04:02:20;;;;;;;;;;;;;;;14.37;85.45;101936.28;5039118;28;19917;-79
2022/10/17 04:05:05;;;;;;;;;;;;;;;14.35;85.49;101933.00;5035647;28;19921;-81
2022/10/17 04:07:49;;;;;;;;;;;;;;;14.37;85.30;101934.38;5015470;28;19917;-79
2022/10/17 04:10:37;;;;;;;;;;;;;;;14.33;85.30;101935.25;5016669;28;19917;-79
2022/10/17 04:13:22;;;;;;;;;;;;;;;14.19;85.81;101937.22;5031823;28;19917;-79
2022/10/17 04:16:07;;;;;;;;;;;;;;;14.13;86.46;101939.25;5017968;28;19921;-79
2022/10/17 04:18:58;;;;;;;;;;;;;;;14.11;86.70;101942.34;5048662;28;19925;-77
2022/10/17 04:21:45;;;;;;;;;;;;;;;14.07;86.60;101941.31;5023811;28;20308;-80
2022/10/17 04:24:31;;;;;;;;;;;;;;;14.09;86.36;101950.03;5032855;28;20296;-80
2022/10/17 04:27:27;;;;;;;;;;;;;;;14.17;85.80;101950.41;5041807;28;19917;-80
2022/10/17 04:30:12;;;;;;;;;;;;;;;14.16;85.74;101946.88;5049600;28;19917;-82
2022/10/17 04:32:57;;;;;;;;;;;;;;;14.08;86.34;101961.25;5034508;28;19921;-78
2022/10/17 04:35:41;;;;;;;;;;;;;;;14.07;86.49;101962.38;5046690;28;20416;-78
2022/10/17 04:38:27;;;;;;;;;;;;;;;14.01;86.58;101958.97;5015439;28;20134;-79
2022/10/17 04:41:13;;;;;;;;;;;;;;;13.98;87.07;101965.03;5021114;28;20392;-78
2022/10/17 04:43:57;;;;;;;;;;;;;;;13.96;86.89;101967.28;5050599;28;19925;-81
2022/10/17 04:46:44;;;;;;;;;;;;;;;13.97;86.71;101965.34;5026997;28;19917;-81
2022/10/17 04:49:28;;;;;;;;;;;;;;;14.01;86.67;101967.19;5041824;28;19917;-79
2022/10/17 04:52:18;;;;;;;;;;;;;;;14.04;86.28;101982.16;5026672;28;19917;-78
2022/10/17 04:55:06;;;;;;;;;;;;;;;13.87;86.78;101977.31;5022715;28;20388;-79
2022/10/17 04:57:51;;;;;;;;;;;;;;;13.85;87.08;101984.22;5031154;28;19917;-80
2022/10/17 05:00:38;;;;;;;;;;;;;;;13.84;87.28;101979.84;5017175;28;19921;-80
2022/10/17 05:03:37;;;;;;;;;;;;;;;13.73;87.55;101973.78;5020499;28;19921;-80
2022/10/17 05:06:23;;;;;;;;;;;;;;;13.77;87.48;101979.44;5011769;28;19917;-79
2022/10/17 05:09:32;;;;;;;;;;;;;;;13.75;87.42;101987.16;5028804;28;19917;-78
2022/10/17 05:12:16;;;;;;;;;;;;;;;13.72;87.50;101991.31;5033978;28;19921;-79
2022/10/17 05:15:03;;;;;;;;;;;;;;;13.63;87.59;101988.50;5017614;28;20388;-81
2022/10/17 05:17:53;;;;;;;;;;;;;;;13.75;87.30;101989.91;5030354;28;19925;-79
2022/10/17 05:20:38;;;;;;;;;;;;;;;13.78;87.39;101987.34;5045292;28;19921;-80
2022/10/17 05:23:23;;;;;;;;;;;;;;;13.76;87.34;101988.78;5033416;28;20372;-80
2022/10/17 05:26:08;;;;;;;;;;;;;;;13.73;87.13;101987.47;5030797;28;19918;-81
2022/10/17 05:28:53;;;;;;;;;;;;;;;13.71;87.71;101997.91;5027448;28;19917;-80
2022/10/17 05:31:40;;;;;;;;;;;;;;;13.82;87.34;101995.75;5018114;28;19917;-79
2022/10/17 05:34:25;;;;;;;;;;;;;;;13.43;88.66;101997.09;5033665;28;19917;-80
2022/10/17 05:37:10;;;;;;;;;;;;;;;13.49;88.46;102006.00;5034292;28;19917;-85
2022/10/17 05:39:56;;;;;;;;;;;;;;;13.69;88.05;102011.88;5034680;28;19921;-84
2022/10/17 05:42:46;;;;;;;;;;;;;;;13.70;87.13;102007.22;5029156;28;19917;-83
2022/10/17 05:45:31;;;;;;;;;;;;;;;13.88;85.92;102010.94;5026374;28;20307;-79
2022/10/17 05:48:16;;;;;;;;;;;;;;;13.55;87.88;102016.53;5017116;28;19917;-82
2022/10/17 05:51:03;;;;;;;;;;;;;;;13.52;88.76;102021.78;5013796;28;19917;-82
2022/10/17 05:53:47;;;;;;;;;;;;;;;13.52;89.30;102025.31;5045714;28;19925;-79
2022/10/17 05:56:38;;;;;;;;;;;;;;;13.61;89.43;102037.16;5028199;28;19917;-80
2022/10/17 05:59:25;;;;;;;;;;;;;;;13.63;88.97;102050.53;5047974;28;19921;-79
2022/10/17 06:02:15;;;;;;;;;;;;;;;13.73;89.44;102044.06;5037886;28;19925;-78
2022/10/17 06:05:00;;;;;;;;;;;;;;;13.92;87.61;102042.03;5030245;28;19917;-80
2022/10/17 06:07:45;;;;;;;;;;;;;;;14.10;86.53;102052.88;5024233;28;19936;-79
2022/10/17 06:10:31;;;;;;;;;;;;;;;14.18;86.39;102056.78;5021048;28;19917;-81
2022/10/17 06:13:17;;;;;;;;;;;;;;;14.09;87.48;102059.44;5026299;28;19928;-81
2022/10/17 06:16:06;;;;;;;;;;;;;;;14.11;87.49;102064.63;5019495;28;19916;-78
2022/10/17 06:18:51;;;;;;;;;;;;;;;13.97;87.39;102056.41;5027829;28;19917;-82
2022/10/17 06:21:37;;;;;;;;;;;;;;;13.92;87.68;102074.84;5021844;28;20339;-80
2022/10/17 06:24:35;;;;;;;;;;;;;;;13.85;87.35;102068.97;5043063;28;19917;-83
2022/10/17 06:27:22;;;;;;;;;;;;;;;13.93;86.86;102071.81;5054969;22;19925;-83
2022/10/17 06:30:06;;;;;;;;;;;;;;;14.26;85.55;102077.16;5045522;28;19921;-84
2022/10/17 06:32:51;;;;;;;;;;;;;;;14.65;83.88;102076.56;5064258;28;19917;-85
2022/10/17 06:35:36;;;;;;;;;;;;;;;15.02;81.69;102084.47;5071451;28;19917;-82
2022/10/17 06:38:21;;;;;;;;;;;;;;;15.16;80.14;102092.59;5051465;28;19921;-81
2022/10/17 06:41:12;;;;;;;;;;;;;;;15.04;81.55;102095.91;5056907;28;19917;-80
2022/10/17 06:43:56;;;;;;;;;;;;;;;15.41;80.08;102101.00;5039778;28;19918;-81
2022/10/17 06:47:09;;;;;;;;;;;;;;;15.96;77.56;102100.63;5038712;28;19917;-82
2022/10/17 06:49:54;;;;;;;;;;;;;;;16.33;75.55;102091.03;5041180;28;19917;-81
2022/10/17 06:52:49;;;;;;;;;;;;;;;16.21;75.97;102096.34;5048725;28;19916;-81
2022/10/17 06:55:54;;;;;;;;;;;;;;;16.58;75.04;102105.94;5052523;28;19917;-81
2022/10/17 06:58:57;;;;;;;;;;;;;;;16.65;74.39;102103.56;5058373;28;19920;-79
2022/10/17 07:01:52;;;;;;;;;;;;;;;16.05;78.52;102111.66;5066319;28;19917;-79
2022/10/17 07:04:36;;;;;;;;;;;;;;;16.03;78.47;102117.44;5069386;28;19917;-80
2022/10/17 07:07:21;;;;;;;;;;;;;;;15.57;80.33;102125.28;5066765;28;19917;-78
2022/10/17 07:10:07;;;;;;;;;;;;;;;15.58;81.07;102127.72;5065808;28;19916;-80
2022/10/17 07:12:54;;;;;;;;;;;;;;;15.48;81.73;102121.66;5067481;28;19917;-80
2022/10/17 07:15:39;;;;;;;;;;;;;;;15.40;83.00;102128.72;5065931;28;20383;-78
2022/10/17 07:18:23;;;;;;;;;;;;;;;15.63;81.88;102129.53;5065248;28;19921;-78
2022/10/17 07:21:08;;;;;;;;;;;;;;;15.66;81.77;102134.38;5064589;28;20307;-77
2022/10/17 07:23:54;;;;;;;;;;;;;;;15.98;80.09;102125.81;5053022;28;20300;-77
2022/10/17 07:26:39;;;;;;;;;;;;;;;16.03;80.20;102133.91;5034948;28;19917;-78
2022/10/17 07:29:25;;;;;;;;;;;;;;;15.88;81.39;102126.09;5040323;28;19916;-78
2022/10/17 07:32:27;;;;;;;;;;;;;;;16.19;80.01;102131.53;5036746;28;19917;-77
2022/10/17 07:35:12;;;;;;;;;;;;;;;16.71;78.06;102129.72;5038119;28;19917;-78
2022/10/17 07:37:58;;;;;;;;;;;;;;;17.08;75.71;102125.53;5040098;28;19921;-78
2022/10/17 07:40:44;;;;;;;;;;;;;;;17.37;74.63;102130.34;5043058;28;20397;-77
2022/10/17 07:43:29;;;;;;;;;;;;;;;17.31;75.35;102135.22;5047206;28;20159;-78
2022/10/17 07:46:16;;;;;;;;;;;;;;;17.57;74.39;102131.59;5036569;28;19917;-78
2022/10/17 07:49:01;;;;;;;;;;;;;;;18.14;70.79;102130.09;5043430;28;19917;-81
2022/10/17 07:51:46;;;;;;;;;;;;;;;18.08;71.74;102125.13;5058858;28;19917;-83
2022/10/17 07:54:31;;;;;;;;;;;;;;;17.99;72.72;102124.34;5031258;28;19917;-83
2022/10/17 07:57:15;;;;;;;;;;;;;;;17.94;72.68;102126.16;5040826;28;19921;-84
2022/10/17 08:00:00;;;;;;;;;;;;;;;17.93;72.86;102127.28;5039462;28;19925;-83
2022/10/17 08:02:44;;;;;;;;;;;;;;;17.98;73.60;102131.00;5043078;28;20293;-84
2022/10/17 08:05:29;;;;;;;;;;;;;;;18.14;73.59;102135.59;5041191;28;19917;-84
2022/10/17 08:08:13;;;;;;;;;;;;;;;18.10;73.97;102125.59;5039351;28;19918;-84
2022/10/17 08:11:06;;;;;;;;;;;;;;;18.30;73.99;102124.81;5040666;28;19917;-84
2022/10/17 08:13:50;;;;;;;;;;;;;;;18.55;73.14;102134.91;5038628;28;19921;-84
2022/10/17 08:16:35;;;;;;;;;;;;;;;18.48;72.20;102129.09;5035991;28;19917;-84
2022/10/17 08:19:19;;;;;;;;;;;;;;;18.63;72.02;102136.81;5040046;28;19925;-84
2022/10/17 08:22:04;;;;;;;;;;;;;;;18.67;71.86;102137.75;5038285;28;19917;-84
2022/10/17 08:24:48;;;;;;;;;;;;;;;18.63;72.94;102134.06;5036581;28;19917;-83
2022/10/17 08:27:33;;;;;;;;;;;;;;;18.49;73.77;102138.97;5037549;28;20400;-83
2022/10/17 08:30:17;;;;;;;;;;;;;;;18.69;74.08;102140.97;5035727;28;19917;-84
2022/10/17 08:33:02;;;;;;;;;;;;;;;18.77;73.60;102148.38;5036031;28;19917;-84
2022/10/17 08:35:46;;;;;;;;;;;;;;;18.89;73.59;102139.38;5035376;28;20301;-84
2022/10/17 08:38:31;;;;;;;;;;;;;;;18.92;74.09;102143.41;5035680;28;20372;-84
2022/10/17 08:41:24;;;;;;;;;;;;;;;18.90;73.95;102142.91;5035645;28;20384;-83
2022/10/17 08:44:18;;;;;;;;;;;;;;;19.14;73.98;102140.28;5041016;28;20160;-84
2022/10/17 08:47:04;;;;;;;;;;;;;;;19.40;73.05;102146.34;5035308;28;19916;-83
2022/10/17 08:49:57;;;;;;;;;;;;;;;19.43;72.71;102142.94;5034778;28;19917;-84
2022/10/17 08:52:48;;;;;;;;;;;;;;;19.51;72.33;102139.28;5035488;28;20384;-84
2022/10/17 08:55:35;;;;;;;;;;;;;;;19.50;73.84;102151.50;5035036;28;19917;-84
2022/10/17 08:58:19;;;;;;;;;;;;;;;20.27;71.18;102138.69;5034497;28;19922;-83
2022/10/17 09:01:13;;;;;;;;;;;;;;;19.86;72.50;102136.16;5038215;28;19921;-83
2022/10/17 09:04:03;;;;;;;;;;;;;;;19.93;72.91;102144.66;5035828;28;19917;-84
2022/10/17 09:06:59;;;;;;;;;;;;;;;20.74;69.43;102139.00;5038239;28;20296;-83
2022/10/17 09:09:44;;;;;;;;;;;;;;;20.16;71.65;102143.06;5036720;28;19917;-82
2022/10/17 09:13:00;;;;;;;;;;;;;;;20.61;70.28;102142.13;5034887;28;20381;-83
2022/10/17 09:15:54;;;;;;;;;;;;;;;20.42;70.32;102140.75;5034135;28;19917;-83
2022/10/17 09:18:42;;;;;;;;;;;;;;;20.97;68.69;102139.28;5034673;28;19921;-83
2022/10/17 09:21:46;;;;;;;;;;;;;;;20.60;70.81;102146.06;5033446;28;19917;-83
2022/10/17 09:24:37;;;;;;;;;;;;;;;20.51;70.97;102154.47;5034097;28;19917;-83
2022/10/17 09:27:23;;;;;;;;;;;;;;;20.56;70.22;102150.66;5033868;28;19917;-83
2022/10/17 09:30:26;;;;;;;;;;;;;;;21.07;67.46;102133.25;5033457;28;19917;-83
2022/10/17 09:33:12;;;;;;;;;;;;;;;20.73;69.16;102139.31;5034703;28;19925;-83
2022/10/17 09:35:57;;;;;;;;;;;;;;;21.00;68.08;102149.63;5032807;28;19921;-83
2022/10/17 09:38:44;;;;;;;;;;;;;;;20.88;68.69;102141.34;5036521;28;19921;-83
2022/10/17 09:41:43;;;;;;;;;;;;;;;21.34;67.53;102143.50;5033568;28;19917;-83
2022/10/17 09:44:39;;;;;;;;;;;;;;;20.84;68.07;102151.53;5040929;28;19917;-84
2022/10/17 09:47:30;;;;;;;;;;;;;;;21.15;66.94;102145.34;5040926;28;20288;-84
2022/10/17 09:50:20;;;;;;;;;;;;;;;21.02;66.59;102152.88;5040478;28;19917;-84
2022/10/17 09:53:09;;;;;;;;;;;;;;;21.16;66.71;102144.19;5041267;28;20204;-84
2022/10/17 09:55:56;;;;;;;;;;;;;;;21.38;65.09;102146.41;5041541;28;19917;-83
2022/10/17 09:58:43;;;;;;;;;;;;;;;21.40;65.25;102146.03;5035902;28;19921;-84
2022/10/17 10:01:29;;;;;;;;;;;;;;;21.64;64.81;102152.22;5042822;28;20300;-84
2022/10/17 10:04:15;;;;;;;;;;;;;;;21.61;65.01;102147.41;5040957;28;19917;-84
2022/10/17 10:07:01;;;;;;;;;;;;;;;21.51;64.70;102147.13;5037431;28;19918;-84
2022/10/17 10:09:46;;;;;;;;;;;;;;;21.72;63.30;102142.16;5041294;28;19917;-84
2022/10/17 10:12:32;;;;;;;;;;;;;;;22.52;60.32;102142.56;5039340;28;19917;-84
2022/10/17 10:15:29;;;;;;;;;;;;;;;22.30;60.74;102145.22;5035087;28;19917;-84
2022/10/17 10:18:23;;;;;;;;;;;;;;;21.81;62.63;102147.50;5036697;28;19928;-84
2022/10/17 10:21:10;;;;;;;;;;;;;;;22.47;60.33;102148.38;5038687;28;19918;-84
2022/10/17 10:24:03;;;;;;;;;;;;;;;21.92;61.70;102152.16;5033013;28;19917;-83
2022/10/17 10:26:49;;;;;;;;;;;;;;;22.11;60.95;102149.50;5058241;28;19917;-83
2022/10/17 10:29:35;;;;;;;;;;;;;;;22.01;61.68;102138.97;5043876;28;19917;-85
2022/10/17 10:32:25;;;;;;;;;;;;;;;22.72;60.37;102146.19;5039513;28;19917;-85
2022/10/17 10:35:20;;;;;;;;;;;;;;;23.57;56.87;102145.16;5055767;28;19917;-84
2022/10/17 10:38:14;;;;;;;;;;;;;;;23.23;57.22;102141.31;5055051;28;20295;-85
2022/10/17 10:41:04;;;;;;;;;;;;;;;22.65;58.84;102129.38;5060955;28;19916;-84
2022/10/17 10:43:50;;;;;;;;;;;;;;;24.09;54.58;102138.09;5053039;28;19917;-85
2022/10/17 10:46:35;;;;;;;;;;;;;;;23.97;55.36;102138.31;5049591;28;19917;-84
2022/10/17 10:49:29;;;;;;;;;;;;;;;24.01;55.45;102144.72;5058979;28;19917;-85
2022/10/17 10:52:21;;;;;;;;;;;;;;;23.74;55.17;102141.91;5053097;28;19917;-84
2022/10/17 10:55:26;;;;;;;;;;;;;;;22.72;58.17;102134.28;5053386;28;19916;-84
2022/10/17 10:58:34;;;;;;;;;;;;;;;23.58;56.06;102135.66;5052495;28;19925;-85
2022/10/17 11:01:41;;;;;;;;;;;;;;;24.01;54.74;102134.41;5054767;28;19917;-85
2022/10/17 11:04:29;;;;;;;;;;;;;;;23.21;56.89;102134.53;5038667;28;19918;-84
2022/10/17 11:07:18;;;;;;;;;;;;;;;23.41;56.18;102134.16;5039766;28;20376;-84
2022/10/17 11:10:15;;;;;;;;;;;;;;;23.45;55.93;102131.47;5053746;28;19916;-85
2022/10/17 11:13:12;;;;;;;;;;;;;;;24.71;52.27;102126.34;5051274;28;19917;-84
2022/10/17 11:16:03;;;;;;;;;;;;;;;25.11;51.32;102125.69;5053356;28;19917;-86
2022/10/17 11:18:52;;;;;;;;;;;;;;;24.08;52.50;102131.75;5053493;28;19921;-84
2022/10/17 11:21:36;;;;;;;;;;;;;;;23.94;53.52;102125.16;5055475;28;19917;-84
2022/10/17 11:24:29;;;;;;;;;;;;;;;24.37;52.04;102123.88;5058931;28;19929;-84
2022/10/17 11:27:13;;;;;;;;;;;;;;;24.11;52.87;102117.13;5053154;28;19916;-84
2022/10/17 11:29:58;;;;;;;;;;;;;;;23.91;53.43;102117.56;5058970;28;19929;-84
2022/10/17 11:32:46;;;;;;;;;;;;;;;24.28;52.67;102115.78;5054464;28;19924;-83
2022/10/17 11:35:40;;;;;;;;;;;;;;;24.32;51.72;102113.88;5027228;28;19920;-85
2022/10/17 11:38:46;;;;;;;;;;;;;;;24.92;50.74;102111.13;5045168;28;19921;-84
2022/10/17 11:41:35;;;;;;;;;;;;;;;25.62;48.88;102107.53;5032554;28;19917;-84
2022/10/17 11:44:19;;;;;;;;;;;;;;;26.04;47.69;102105.09;5034480;28;20288;-85
2022/10/17 11:47:06;;;;;;;;;;;;;;;26.66;46.30;102105.09;5054591;28;19917;-85
2022/10/17 11:49:53;;;;;;;;;;;;;;;27.03;45.21;102100.06;5041563;28;19921;-85
2022/10/17 11:52:42;;;;;;;;;;;;;;;25.76;47.42;102097.28;5042926;28;20312;-85
2022/10/17 11:55:30;;;;;;;;;;;;;;;26.02;46.83;102089.94;5037600;28;19917;-85
2022/10/17 11:58:15;;;;;;;;;;;;;;;25.94;47.10;102091.88;5036199;28;19921;-85
2022/10/17 12:01:06;;;;;;;;;;;;;;;26.56;46.08;102094.69;5043392;28;19917;-85
2022/10/17 12:04:01;;;;;;;;;;;;;;;28.88;40.97;102092.41;5042907;28;19921;-83
2022/10/17 12:06:48;;;;;;;;;;;;;;;30.18;37.41;102087.84;5051602;28;20384;-82
2022/10/17 12:09:36;;;;;;;;;;;;;;;32.03;34.00;102100.13;5058004;28;19917;-83
2022/10/17 12:12:28;;;;;;;;;;;;;;;36.07;27.54;102114.91;5047470;28;19917;-82
2022/10/17 12:15:12;;;;;;;;;;;;;;;35.74;27.03;102108.81;5042096;28;20307;-85
2022/10/17 12:18:01;;;;;;;;;;;;;;;33.00;31.61;102097.03;5056582;28;19921;-85
2022/10/17 12:20:56;;;;;;;;;;;;;;;30.54;34.79;102091.09;5055120;28;19917;-84
2022/10/17 12:23:50;;;;;;;;;;;;;;;31.30;33.35;102088.88;5029017;28;19920;-85
2022/10/17 12:26:34;;;;;;;;;;;;;;;31.95;33.24;102090.22;5041077;28;19921;-85
2022/10/17 12:29:25;;;;;;;;;;;;;;;33.01;31.17;102095.78;5055329;28;19921;-86
2022/10/17 12:32:14;;;;;;;;;;;;;;;31.25;33.12;102092.16;5044077;28;19917;-84
2022/10/17 12:34:58;;;;;;;;;;;;;;;32.79;30.09;102083.38;5045461;28;19917;-85
2022/10/17 12:37:49;;;;;;;;;;;;;;;31.29;32.69;102084.50;5043577;28;20012;-86
2022/10/17 12:40:34;;;;;;;;;;;;;;;31.96;32.32;102080.56;5045010;28;20296;-85
2022/10/17 12:43:27;;;;;;;;;;;;;;;30.29;34.53;102086.94;5071056;23;19924;-80
2022/10/17 12:46:32;;;;;;;;;;;;;;;30.72;34.11;102078.84;5049421;28;20008;-80
2022/10/17 12:49:36;;;;;;;;;;;;;;;33.90;29.12;102080.34;5059157;28;19916;-80
2022/10/17 12:52:34;;;;;;;;;;;;;;;32.07;31.67;102069.91;5057713;28;20300;-80
2022/10/17 12:55:18;;;;;;;;;;;;;;;31.97;31.73;102070.88;5057172;28;20380;-80
2022/10/17 12:58:11;;;;;;;;;;;;;;;31.48;33.11;102071.72;5056201;28;20539;-80
2022/10/17 13:00:57;;;;;;;;;;;;;;;32.06;31.71;102067.50;5051680;28;19917;-80
2022/10/17 13:03:43;;;;;;;;;;;;;;;31.67;32.71;102065.41;5052609;28;19916;-80
2022/10/17 13:06:29;;;;;;;;;;;;;;;31.34;32.61;102056.66;5056723;28;19917;-80
2022/10/17 13:09:26;;;;;;;;;;;;;;;32.01;31.73;102057.53;5058645;28;19921;-80
2022/10/17 13:12:13;;;;;;;;;;;;;;;31.71;32.30;102052.88;5058660;28;19917;-80
2022/10/17 13:14:58;;;;;;;;;;;;;;;32.07;31.97;102058.63;5058072;28;19917;-80
2022/10/17 13:17:43;;;;;;;;;;;;;;;34.28;28.29;102055.13;5058418;28;20300;-79
2022/10/17 13:20:29;;;;;;;;;;;;;;;32.06;31.83;102053.44;5059123;28;19917;-81
2022/10/17 13:23:21;;;;;;;;;;;;;;;31.07;32.87;102041.06;5058257;28;19917;-80
2022/10/17 13:26:06;;;;;;;;;;;;;;;31.32;32.73;102050.69;5062938;28;20392;-81
2022/10/17 13:29:10;;;;;;;;;;;;;;;34.11;27.45;102045.09;5052411;28;19917;-81
2022/10/17 13:31:59;;;;;;;;;;;;;;;32.50;30.40;102044.53;5042611;28;19917;-80
2022/10/17 13:34:44;;;;;;;;;;;;;;;31.58;31.43;102045.47;5075226;28;19924;-81
2022/10/17 13:37:29;;;;;;;;;;;;;;;34.18;28.09;102044.91;5057811;28;19916;-81
2022/10/17 13:40:14;;;;;;;;;;;;;;;32.51;30.20;102040.47;5058123;28;19921;-82
2022/10/17 13:43:01;;;;;;;;;;;;;;;30.54;33.94;102046.16;5058918;28;19916;-81
2022/10/17 13:45:49;;;;;;;;;;;;;;;34.49;28.03;102046.03;5057886;28;19916;-81
2022/10/17 13:48:35;;;;;;;;;;;;;;;33.74;28.45;102040.84;5055103;28;19916;-81
2022/10/17 13:51:20;;;;;;;;;;;;;;;35.01;26.72;102045.66;5054525;28;19916;-81
2022/10/17 13:54:16;;;;;;;;;;;;;;;32.44;29.88;102039.84;5051847;28;19917;-80
2022/10/17 13:57:03;;;;;;;;;;;;;;;35.56;26.38;102032.94;5056166;28;19917;-80
2022/10/17 13:59:49;;;;;;;;;;;;;;;34.33;27.49;102038.44;5058784;28;19920;-80
2022/10/17 14:02:34;;;;;;;;;;;;;;;33.33;28.73;102039.44;5055437;28;19917;-80
2022/10/17 14:05:19;;;;;;;;;;;;;;;35.43;25.54;102037.84;5061262;28;19917;-80
2022/10/17 14:08:04;;;;;;;;;;;;;;;31.06;31.55;102033.84;5054410;28;19917;-81
2022/10/17 14:10:48;;;;;;;;;;;;;;;35.25;25.89;102036.88;5057269;28;19917;-81
2022/10/17 14:13:34;;;;;;;;;;;;;;;33.93;27.87;102029.44;5056907;28;19917;-80
2022/10/17 14:16:19;;;;;;;;;;;;;;;34.78;26.74;102028.25;5057091;28;19917;-80
2022/10/17 14:19:05;;;;;;;;;;;;;;;32.05;29.85;102018.09;5057101;28;19921;-80
2022/10/17 14:21:52;;;;;;;;;;;;;;;30.57;31.99;102024.88;5056519;28;20384;-81
2022/10/17 14:24:38;;;;;;;;;;;;;;;31.17;31.53;102018.41;5040650;28;19917;-81